Metar-Reports

 

EDDS - Stuttgart/Echter, Germany
Distance from station: SW 11km
Updated: Fri, 05-Jun-2020 4:20pm CEST
Mostly Cloudy
Mostly Cloudy
 Wind from SW
Wind: SW 24 km/h, Gust: 44 km/h
Temperatur: 15°C
Taupunkt: 7°C
Luftfeuchte: 59%
Luftdruck: 1000 hPa
Wolken: Mostly Cloudy
Sicht: 10 km
Wolken Details: Partly Cloudy 1036 m
Mostly Cloudy 1311 m
2020/06/05 14:20 EDDS 051420Z 22013G24KT 170V280 9999 SCT034 BKN043 15/07 Q1000 NOSIG
EDTY - Schwaebisch Hall, Germany
Distance from station: NE 54km
Updated: Fri, 05-Jun-2020 3:50pm CEST
Overcast
Overcast
 Wind from SW
Wind: SW 20 km/h
Temperatur: 13°C
Taupunkt: 8°C
Luftfeuchte: 72%
Luftdruck: 1000 hPa
Wolken: Overcast
Sicht: 10 km
Wolken Details: Mostly Cloudy 640 m
Mostly Cloudy 884 m
Overcast 1250 m
2020/06/05 13:50 EDTY 051350Z 23011KT 200V260 9999 BKN021 BKN029 OVC041 13/08 Q1000
 
ETHL - Laupheim (ger-Ar, Germany
Distance from station: SE 73km
Updated: Fri, 05-Jun-2020 4:20pm CEST
Mostly Cloudy
Mostly Cloudy
 Wind from SW
Wind: SW 26 km/h
Temperatur: 13°C
Taupunkt: 8°C
Luftfeuchte: 72%
Luftdruck: 1001 hPa
Wolken: Mostly Cloudy
Sicht: 10 km
Wolken Details: Partly Cloudy 762 m
Partly Cloudy 1524 m
Mostly Cloudy 2438 m
2020/06/05 14:20 ETHL 051420Z 23014KT 9999 SCT025 SCT050 BKN080 13/08 Q1001 BLU
ETHN - Niederstetten (g, Germany
Distance from station: NNE 85km
Updated: Fri, 05-Jun-2020 4:20pm CEST
Mostly Cloudy
Mostly Cloudy
 Wind from SW
Wind: SW 24 km/h, Gust: 44 km/h
Temperatur: 13°C
Taupunkt: 8°C
Luftfeuchte: 72%
Luftdruck: 999 hPa
Wolken: Mostly Cloudy
Sicht: 10 km
Wolken Details: Partly Cloudy 488 m
Partly Cloudy 1067 m
Mostly Cloudy 3353 m
2020/06/05 14:20 ETHN 051420Z 23013G24KT 9999 SCT016 SCT035 BKN110 13/08 Q0999 BLU
 
EDSB - Karlsruhe/Baden, Germany
Distance from station: W 91km
Updated: Fri, 05-Jun-2020 4:20pm CEST
Nearby showers, Mostly cloudy
Nearby showers, Mostly cloudy
 Wind from SSW
Wind: SSW 41 km/h
Temperatur: 15°C
Taupunkt: 9°C
Luftfeuchte: 68%
Luftdruck: 999 hPa
Wetter: Nearby Showers
Wolken: Mostly Cloudy
Sicht: 10 km
Wolken Details: Partly Cloudy 671 m
Mostly Cloudy 1341 m
2020/06/05 14:20 EDSB 051420Z 20022KT 9999 VCSH SCT022CB BKN044 15/09 Q0999
EDFM - Mannheim, Germany
Distance from station: NNW 103km
Updated: Fri, 05-Jun-2020 4:20pm CEST
Mostly Cloudy
Mostly Cloudy
 Wind from S
Wind: S 17 km/h
Temperatur: 15°C
Taupunkt: 9°C
Luftfeuchte: 68%
Luftdruck: 998 hPa
Wolken: Mostly Cloudy
Sicht: 10 km
Wolken Details: Mostly Cloudy 1067 m
2020/06/05 14:20 EDFM 051420Z 19009KT 150V220 9999 BKN035 15/09 Q0998
 
EDJA - Memmingen Allgau, Germany
Distance from station: SE 108km
Updated: Fri, 05-Jun-2020 4:20pm CEST
Mostly Cloudy
Mostly Cloudy
 Wind from WSW
Wind: WSW 30 km/h
Temperatur: 13°C
Taupunkt: 8°C
Luftfeuchte: 72%
Luftdruck: 1002 hPa
Wolken: Mostly Cloudy
Sicht: 10 km
Wolken Details: Partly Cloudy 762 m
Mostly Cloudy 884 m
2020/06/05 14:20 EDJA 051420Z 24016KT 9999 SCT025 BKN029 13/08 Q1002
ETIK - Illesheim (usa-A, Germany
Distance from station: NE 111km
Updated: Fri, 05-Jun-2020 3:56pm CEST
Mostly Cloudy
Mostly Cloudy
 Wind from SSW
Wind: SSW 15 km/h, Gust: 31 km/h
Temperatur: 14°C
Taupunkt: 10°C
Luftfeuchte: 77%
Luftdruck: 1000 hPa
Wolken: Mostly Cloudy
Sicht: 10 km
Wolken Details: Few Clouds 640 m
Partly Cloudy 792 m
Partly Cloudy 1524 m
Mostly Cloudy 2743 m
Mostly Cloudy 4877 m
2020/06/05 13:56 ETIK 051356Z AUTO 20008G17KT 9999 FEW021 SCT026 SCT050 BKN090 BKN160 14/10 A2953 RMK AO2 DZE06 SLP000 P0000 T01400102 $
 
ETEB - Katterbach (usa-, Germany
Distance from station: NE 114km
Updated: Fri, 05-Jun-2020 4:11pm CEST
Mostly Cloudy
Mostly Cloudy
 Wind from SSW
Wind: SSW 22 km/h
Temperatur: 12°C
Taupunkt: 11°C
Luftfeuchte: 94%
Luftdruck: 999.7 hPa
Wolken: Mostly Cloudy
Sicht: 10 km
Wolken Details: Partly Cloudy 579 m
Mostly Cloudy 1219 m
2020/06/05 14:11 ETEB 051411Z AUTO 21012KT 9999 SCT019 BKN040 12/11 A2952 RMK AO2 SLP010 $
EDTL - Lahr (can-Afb), Germany
Distance from station: WSW 117km
Updated: Fri, 05-Jun-2020 4:20pm CEST
Overcast
Overcast
 Wind from SSW
Wind: SSW 28 km/h
Temperatur: 15°C
Taupunkt: 9°C
Luftfeuchte: 68%
Luftdruck: 1001 hPa
Wolken: Overcast
Sicht: 10 km
Wolken Details: Overcast 1372 m
2020/06/05 14:20 EDTL 051420Z 21015KT 9999 OVC045 15/09 Q1001
 
EDNY - Friedrichshafen, Germany
Distance from station: S 121km
Updated: Fri, 05-Jun-2020 4:20pm CEST
Mostly Cloudy
Mostly Cloudy
 Wind from WSW
Wind: WSW 24 km/h
Temperatur: 15°C
Taupunkt: 9°C
Luftfeuchte: 68%
Luftdruck: 1003 hPa
Wolken: Mostly Cloudy
Sicht: 10 km
Wolken Details: Partly Cloudy 1372 m
Mostly Cloudy 1554 m
2020/06/05 14:20 EDNY 051420Z 25013KT 220V280 9999 SCT045 BKN051 15/09 Q1003
EDMA - Augsburg/Mulhaus, Germany
Distance from station: ESE 123km
Updated: Fri, 05-Jun-2020 4:20pm CEST
Partly Cloudy
Partly Cloudy
 Wind from WSW
Wind: WSW 20 km/h
Temperatur: 13°C
Taupunkt: 10°C
Luftfeuchte: 82%
Luftdruck: 1001 hPa
Wolken: Partly Cloudy
Sicht: 10 km
Wolken Details: Partly Cloudy 671 m
2020/06/05 14:20 EDMA 051420Z 24011KT 9999 SCT022 13/10 Q1001
 
LFST - Strasbourg/Entzh, France
Distance from station: W 127km
Updated: Fri, 05-Jun-2020 4:30pm CEST
Overcast
Overcast
 Wind from SW
Wind: SW 37 km/h
Temperatur: 15°C
Taupunkt: 10°C
Luftfeuchte: 72%
Luftdruck: 1000 hPa
Wolken: Overcast
Sicht: 10 km
Wolken Details: Few Clouds 914 m
Mostly Cloudy 1311 m
Overcast 1585 m
2020/06/05 14:30 LFST 051430Z AUTO 22020KT 9999 FEW030 BKN043 OVC052 15/10 Q1000 TEMPO 23017G32KT FEW035TCU
ETSL - Lechfeld (ger-Af, Germany
Distance from station: ESE 131km
Updated: Fri, 05-Jun-2020 4:20pm CEST

 Wind from SW
Wind: SW 24 km/h, Gust: 43 km/h
Temperatur: 14°C
Taupunkt: 7°C
Luftfeuchte: 63%
Luftdruck: 1001 hPa
Sicht: 10 km
2020/06/05 14:20 ETSL 051420Z AUTO 22013G23KT 9999 // ////// 14/07 Q1001 ///
 
ETSN - Neuburg/Donau, Germany
Distance from station: E 139km
Updated: Fri, 05-Jun-2020 4:20pm CEST
Mostly Cloudy
Mostly Cloudy
 Wind from SW
Wind: SW 11 km/h
Temperatur: 14°C
Taupunkt: 9°C
Luftfeuchte: 72%
Luftdruck: 1001 hPa
Wolken: Mostly Cloudy
Sicht: 10 km
Wolken Details: Few Clouds 762 m
Partly Cloudy 1524 m
Mostly Cloudy 2743 m
2020/06/05 14:20 ETSN 051420Z 23006KT 9999 FEW025 SCT050 BKN090 14/09 Q1001 BLU
LSZR - Rheineck/Altenrh, Switzerland
Distance from station: S 141km
Updated: Fri, 05-Jun-2020 4:50pm CEST
Partly Cloudy
Partly Cloudy
 Wind from W
Wind: W 19 km/h
Temperatur: 16°C
Taupunkt: 9°C
Luftfeuchte: 63%
Luftdruck: 1003 hPa
Wolken: Partly Cloudy
Sicht: 10 km
Wolken Details: Few Clouds 1250 m
Partly Cloudy 1524 m
2020/06/05 14:50 LSZR 051450Z 27010KT 240V300 9999 FEW041 SCT050 16/09 Q1003 NOSIG RMK I
 
ETAR - Ramstein (usafb), Germany
Distance from station: WNW 147km
Updated: Fri, 05-Jun-2020 4:32pm CEST
Light rain, Mist, Overcast
Light rain, Mist, Overcast
 Wind from SW
Wind: SW 26 km/h, Gust: 43 km/h
Temperatur: 12°C
Taupunkt: 11°C
Luftfeuchte: 94%
Luftdruck: 997.3 hPa
Wetter: Light rain, Mist
Wolken: Overcast
Sicht: 6 km
Wolken Details: Few Clouds 427 m
Overcast 671 m
2020/06/05 14:32 ETAR 051432Z 22014G23KT 180V260 6000 -RA BR FEW014 OVC022 12/11 A2945 RMK AO2A CIG 018 RWY08 SLP976 FZRANO $
LSZH - Zurich-Kloten (a, Switzerland
Distance from station: SSW 152km
Updated: Fri, 05-Jun-2020 4:50pm CEST
Mostly Cloudy
Mostly Cloudy
 Wind from WSW
Wind: WSW 35 km/h
Temperatur: 16°C
Taupunkt: 7°C
Luftfeuchte: 55%
Luftdruck: 1003 hPa
Wolken: Mostly Cloudy
Sicht: 10 km
Wolken Details: Few Clouds 762 m
Mostly Cloudy 1981 m
2020/06/05 14:50 LSZH 051450Z 25019KT 9999 FEW025 BKN065 16/07 Q1003 NOSIG
 
EDDN - Nuernberg, Germany
Distance from station: NE 153km
Updated: Fri, 05-Jun-2020 4:20pm CEST
Few Clouds
Few Clouds
 Wind from S
Wind: S 17 km/h
Temperatur: 12°C
Taupunkt: 9°C
Luftfeuchte: 82%
Luftdruck: 1000 hPa
Wolken: Few Clouds
Sicht: 10 km
Wolken Details: Few Clouds 853 m
2020/06/05 14:20 EDDN 051420Z 17009KT 140V200 9999 FEW028 12/09 Q1000 NOSIG
EDDF - Frankfurt Main A, Germany
Distance from station: NNW 154km
Updated: Fri, 05-Jun-2020 4:20pm CEST
Light rain, Showers, Mostly cloudy
Light rain, Showers, Mostly cloudy
 Wind from SSW
Wind: SSW 26 km/h, Gust: 44 km/h
Temperatur: 13°C
Taupunkt: 9°C
Luftfeuchte: 77%
Luftdruck: 996 hPa
Wetter: Light rain, Showers
Wolken: Mostly Cloudy
Sicht: 10 km
Wolken Details: Few Clouds 366 m
Few Clouds 853 m
Partly Cloudy 1036 m
Mostly Cloudy 1280 m
2020/06/05 14:20 EDDF 051420Z 20014G24KT 9999 -SHRA FEW012 FEW028CB SCT034 BKN042 13/09 Q0996 NOSIG

Metar display script from Saratoga-Weather.org